createdAt,value
2019-01-26T00:02:20.394Z,8.50
2019-01-26T00:04:50.186Z,8.50
2019-01-26T00:07:19.956Z,8.40
2019-01-26T00:09:49.641Z,8.40
2019-01-26T00:12:19.349Z,8.50
2019-01-26T00:14:49.134Z,8.40
2019-01-26T00:17:18.827Z,8.40
2019-01-26T00:19:48.522Z,8.40
2019-01-26T00:22:18.282Z,8.40
2019-01-26T00:24:48.078Z,8.40
2019-01-26T00:27:17.774Z,8.40
2019-01-26T00:29:47.541Z,8.40
2019-01-26T00:32:17.463Z,8.40
2019-01-26T00:34:47.213Z,8.40
2019-01-26T00:37:16.986Z,8.40
2019-01-26T00:39:46.683Z,8.30
2019-01-26T00:42:16.449Z,8.30
2019-01-26T00:44:46.263Z,8.30
2019-01-26T00:47:16.090Z,8.30
2019-01-26T00:49:45.792Z,8.30
2019-01-26T00:52:15.469Z,8.20
2019-01-26T00:54:45.235Z,8.20
2019-01-26T00:57:14.946Z,8.20
2019-01-26T00:59:44.717Z,8.30
2019-01-26T01:02:14.495Z,8.30
2019-01-26T01:04:44.342Z,8.30
2019-01-26T01:07:14.109Z,8.30
2019-01-26T01:09:43.817Z,8.30
2019-01-26T01:12:13.583Z,8.30
2019-01-26T01:14:43.346Z,8.30
2019-01-26T01:17:13.099Z,8.30
2019-01-26T01:19:42.870Z,8.30
2019-01-26T01:22:12.645Z,8.30
2019-01-26T01:24:42.487Z,8.30
2019-01-26T01:27:12.302Z,8.30
2019-01-26T01:29:41.993Z,8.30
2019-01-26T01:32:11.690Z,8.30
2019-01-26T01:34:41.421Z,8.30
2019-01-26T01:37:11.298Z,8.20
2019-01-26T01:39:40.998Z,8.20
2019-01-26T01:42:10.759Z,8.20
2019-01-26T01:44:40.501Z,8.20
2019-01-26T01:47:10.450Z,8.20
2019-01-26T01:49:40.121Z,8.10
2019-01-26T01:52:09.838Z,8.10
2019-01-26T01:54:39.530Z,8.10
2019-01-26T01:57:09.306Z,8.10
2019-01-26T01:59:39.077Z,8.10
2019-01-26T02:02:08.845Z,8.10
2019-01-26T02:04:38.538Z,8.10
2019-01-26T02:07:08.373Z,8.10
2019-01-26T02:09:38.134Z,8.00
2019-01-26T02:12:07.910Z,8.00
2019-01-26T02:14:37.602Z,8.10
2019-01-26T02:17:07.485Z,8.10
2019-01-26T02:19:37.286Z,8.00
2019-01-26T02:22:07.248Z,8.00
2019-01-26T02:24:36.953Z,8.00
2019-01-26T02:27:06.714Z,8.00
2019-01-26T02:29:36.405Z,8.10
2019-01-26T02:32:06.258Z,8.10
2019-01-26T02:34:36.038Z,8.10
2019-01-26T02:37:05.738Z,8.20
2019-01-26T02:39:35.439Z,8.20
2019-01-26T02:42:05.374Z,8.20
2019-01-26T02:44:35.151Z,8.20
2019-01-26T02:47:04.978Z,8.30
2019-01-26T02:49:34.842Z,8.20
2019-01-26T02:52:04.755Z,8.30
2019-01-26T02:54:34.515Z,8.30
2019-01-26T02:57:04.386Z,8.30
2019-01-26T02:59:34.075Z,8.30
2019-01-26T03:02:03.777Z,8.30
2019-01-26T03:04:33.481Z,8.30
2019-01-26T03:07:04.480Z,8.30
2019-01-26T03:09:34.299Z,8.30
2019-01-26T03:12:04.068Z,8.30
2019-01-26T03:14:33.826Z,8.30
2019-01-26T03:17:06.323Z,8.30
2019-01-26T03:19:36.329Z,8.30
2019-01-26T03:22:06.150Z,8.30
2019-01-26T03:24:36.020Z,8.30
2019-01-26T03:27:05.878Z,8.30
2019-01-26T03:29:35.643Z,8.30
2019-01-26T03:32:05.404Z,8.30
2019-01-26T03:34:36.171Z,8.30
2019-01-26T03:37:05.946Z,8.30
2019-01-26T03:39:35.712Z,8.30
2019-01-26T03:42:05.548Z,8.30
2019-01-26T03:44:35.416Z,8.30
2019-01-26T03:47:05.311Z,8.40
2019-01-26T03:49:36.319Z,8.40
2019-01-26T03:52:06.099Z,8.40
2019-01-26T03:54:35.857Z,8.40
2019-01-26T03:57:05.686Z,8.40
2019-01-26T03:59:35.453Z,8.40
2019-01-26T04:02:05.291Z,8.40
2019-01-26T04:04:35.113Z,8.40
2019-01-26T04:07:05.218Z,8.40
2019-01-26T04:09:34.902Z,8.40
2019-01-26T04:12:04.758Z,8.40
2019-01-26T04:14:34.927Z,8.40
2019-01-26T04:17:04.704Z,8.40
2019-01-26T04:19:34.399Z,8.40
2019-01-26T04:22:04.230Z,8.30
2019-01-26T04:24:33.994Z,8.30
2019-01-26T04:27:03.746Z,8.20
2019-01-26T04:29:33.421Z,8.30
2019-01-26T04:32:03.298Z,8.20
2019-01-26T04:34:32.967Z,8.20
2019-01-26T04:37:02.722Z,8.30
2019-01-26T04:39:32.408Z,8.30
2019-01-26T04:42:02.390Z,8.30
2019-01-26T04:44:32.158Z,8.30
2019-01-26T04:47:01.928Z,8.30
2019-01-26T04:49:31.795Z,8.40
2019-01-26T04:52:01.679Z,8.40
2019-01-26T04:54:31.454Z,8.40
2019-01-26T04:57:01.170Z,8.30
2019-01-26T04:59:30.831Z,8.40
2019-01-26T05:02:00.773Z,8.40
2019-01-26T05:04:30.459Z,8.40
2019-01-26T05:07:00.130Z,8.40
2019-01-26T05:09:29.807Z,8.40
2019-01-26T05:11:59.571Z,8.40
2019-01-26T05:14:29.344Z,8.40
2019-01-26T05:16:59.310Z,8.40
2019-01-26T05:19:29.029Z,8.30
2019-01-26T05:21:58.774Z,8.30
2019-01-26T05:24:28.559Z,8.40
2019-01-26T05:26:58.257Z,8.30
2019-01-26T05:29:27.934Z,8.30
2019-01-26T05:31:57.611Z,8.30
2019-01-26T05:34:27.441Z,8.30
2019-01-26T05:36:57.233Z,8.30
2019-01-26T05:39:26.945Z,8.30
2019-01-26T05:41:56.670Z,8.30
2019-01-26T05:44:26.374Z,8.20
2019-01-26T05:46:56.131Z,8.20
2019-01-26T05:49:25.832Z,8.20
2019-01-26T05:51:55.506Z,8.10
2019-01-26T05:54:25.226Z,8.10
2019-01-26T05:56:54.938Z,8.10
2019-01-26T05:59:24.636Z,8.00
2019-01-26T06:01:54.395Z,8.00
2019-01-26T06:04:24.707Z,8.10
2019-01-26T06:06:54.446Z,8.00
2019-01-26T06:09:24.178Z,8.10
2019-01-26T06:11:53.930Z,8.10
2019-01-26T06:14:23.738Z,8.10
2019-01-26T06:16:53.558Z,8.10
2019-01-26T06:19:23.238Z,8.10
2019-01-26T06:21:52.950Z,8.20
2019-01-26T06:24:22.634Z,8.10
2019-01-26T06:26:52.322Z,8.10
2019-01-26T06:29:22.067Z,8.20
2019-01-26T06:31:51.778Z,8.20
2019-01-26T06:34:21.795Z,8.10
2019-01-26T06:36:51.641Z,8.20
2019-01-26T06:39:21.355Z,8.20
2019-01-26T06:41:51.122Z,8.20
2019-01-26T06:44:20.975Z,8.20
2019-01-26T06:46:50.729Z,8.20
2019-01-26T06:49:20.568Z,8.20
2019-01-26T06:51:56.252Z,8.20
2019-01-26T06:54:26.997Z,8.10
2019-01-26T06:56:56.670Z,8.10
2019-01-26T06:59:26.398Z,8.10
2019-01-26T07:02:04.706Z,8.10
2019-01-26T07:04:52.462Z,8.10
2019-01-26T07:07:22.219Z,8.10
2019-01-26T07:09:51.909Z,8.10
2019-01-26T07:12:21.682Z,8.10
2019-01-26T07:14:51.442Z,8.10
2019-01-26T07:17:22.170Z,8.10
2019-01-26T07:19:51.935Z,8.10
2019-01-26T07:22:22.603Z,8.10
2019-01-26T07:24:52.353Z,8.10
2019-01-26T07:27:22.253Z,8.10
2019-01-26T07:29:51.943Z,8.00
2019-01-26T07:32:21.647Z,8.00
2019-01-26T07:34:51.341Z,8.00
2019-01-26T07:37:21.027Z,8.00
2019-01-26T07:39:50.722Z,8.00
2019-01-26T07:42:20.394Z,8.10
2019-01-26T07:44:50.150Z,8.10
2019-01-26T07:47:19.854Z,8.10
2019-01-26T07:49:49.518Z,8.10
2019-01-26T07:52:19.354Z,8.10
2019-01-26T07:54:49.034Z,8.10
2019-01-26T07:57:18.802Z,8.10
2019-01-26T07:59:48.682Z,8.10
2019-01-26T08:02:18.506Z,8.10
2019-01-26T08:04:48.198Z,8.10
2019-01-26T08:07:17.969Z,8.20
2019-01-26T08:09:47.665Z,8.20
2019-01-26T08:12:17.520Z,8.20
2019-01-26T08:14:47.327Z,8.20
2019-01-26T08:17:17.006Z,8.20
2019-01-26T08:19:46.706Z,8.10
2019-01-26T08:22:16.403Z,8.20
2019-01-26T08:24:46.164Z,8.20
2019-01-26T08:27:15.935Z,8.20
2019-01-26T08:29:45.690Z,8.20
2019-01-26T08:32:15.389Z,8.20
2019-01-26T08:34:45.168Z,8.30
2019-01-26T08:37:15.014Z,8.30
2019-01-26T08:39:44.794Z,8.30
2019-01-26T08:42:14.544Z,8.40
2019-01-26T08:44:44.431Z,8.40
2019-01-26T08:47:14.213Z,8.40
2019-01-26T08:49:44.046Z,8.40
2019-01-26T08:52:13.725Z,8.40
2019-01-26T08:54:43.439Z,8.40
2019-01-26T08:57:13.330Z,8.40
2019-01-26T08:59:43.034Z,8.40
2019-01-26T09:02:42.234Z,8.30
2019-01-26T09:05:13.615Z,8.20
2019-01-26T09:07:43.374Z,8.20
2019-01-26T09:10:13.143Z,8.20
2019-01-26T09:12:42.904Z,8.20
2019-01-26T09:15:12.750Z,8.20
2019-01-26T09:17:42.507Z,8.20
2019-01-26T09:20:12.607Z,8.20
2019-01-26T09:22:42.375Z,8.20
2019-01-26T09:25:12.221Z,8.20
2019-01-26T09:27:42.294Z,8.20
2019-01-26T09:30:12.704Z,8.10
2019-01-26T09:32:42.643Z,8.10
2019-01-26T09:35:12.695Z,8.10
2019-01-26T09:37:42.542Z,8.10
2019-01-26T09:40:12.626Z,8.10
2019-01-26T09:42:42.481Z,8.20
2019-01-26T09:45:15.465Z,8.10
2019-01-26T09:47:45.442Z,8.10
2019-01-26T09:50:15.583Z,8.10
2019-01-26T09:52:45.401Z,8.10
2019-01-26T09:55:15.465Z,8.20
2019-01-26T09:57:45.331Z,8.20
2019-01-26T10:00:17.367Z,8.10
2019-01-26T10:02:47.157Z,8.20
2019-01-26T10:05:17.028Z,8.20
2019-01-26T10:07:46.816Z,8.20
2019-01-26T10:10:16.766Z,8.30
2019-01-26T10:12:46.734Z,8.30
2019-01-26T10:15:16.857Z,8.30
2019-01-26T10:17:46.802Z,8.40
2019-01-26T10:20:19.586Z,8.40
2019-01-26T10:22:49.461Z,8.50
2019-01-26T10:25:19.414Z,8.50
2019-01-26T10:27:49.281Z,8.50
2019-01-26T10:30:24.846Z,8.50
2019-01-26T10:32:54.606Z,8.50
2019-01-26T10:35:27.238Z,8.60
2019-01-26T10:37:57.218Z,8.60
2019-01-26T10:40:45.242Z,8.50
2019-01-26T10:43:16.769Z,8.60
2019-01-26T10:45:46.556Z,8.60
2019-01-26T10:48:16.365Z,8.60
2019-01-26T10:50:46.236Z,8.60
2019-01-26T10:53:16.025Z,8.60
2019-01-26T10:55:45.778Z,8.60
2019-01-26T10:58:15.539Z,8.60
2019-01-26T11:00:45.449Z,8.60
2019-01-26T11:03:15.220Z,8.50
2019-01-26T11:05:44.985Z,8.50
2019-01-26T11:08:14.901Z,8.50
2019-01-26T11:10:44.618Z,8.50
2019-01-26T11:13:15.966Z,8.60
2019-01-26T11:15:45.829Z,8.50
2019-01-26T11:18:15.628Z,8.60
2019-01-26T11:20:45.445Z,8.60
2019-01-26T11:23:15.205Z,8.50
2019-01-26T11:25:45.062Z,8.50
2019-01-26T11:28:14.823Z,8.60
2019-01-26T11:30:44.575Z,8.60
2019-01-26T11:33:14.267Z,8.60
2019-01-26T11:35:44.027Z,8.50
2019-01-26T11:38:13.894Z,8.50
2019-01-26T11:40:43.670Z,8.60
2019-01-26T11:43:13.442Z,8.60
2019-01-26T11:45:52.559Z,8.60
2019-01-26T11:48:25.141Z,8.60
2019-01-26T11:51:00.090Z,8.50
2019-01-26T11:53:29.858Z,8.50
2019-01-26T11:56:05.026Z,8.40
2019-01-26T11:58:34.832Z,8.40
2019-01-26T12:01:13.305Z,8.40
2019-01-26T12:03:47.694Z,8.40
2019-01-26T12:06:24.726Z,8.40
2019-01-26T12:08:54.567Z,8.40
2019-01-26T12:11:24.338Z,8.40
2019-01-26T12:13:54.042Z,8.40
2019-01-26T12:16:26.972Z,8.40
2019-01-26T12:18:56.287Z,8.40
2019-01-26T12:21:26.154Z,8.50
2019-01-26T12:23:55.933Z,8.50
2019-01-26T12:26:25.778Z,8.50
2019-01-26T12:28:55.498Z,8.50
2019-01-26T12:31:25.348Z,8.50
2019-01-26T12:33:55.099Z,8.50
2019-01-26T12:36:24.858Z,8.60
2019-01-26T12:38:54.583Z,8.60
2019-01-26T12:41:24.278Z,8.70
2019-01-26T12:43:53.994Z,8.80
2019-01-26T12:46:24.712Z,8.90
2019-01-26T12:48:54.434Z,9.00
2019-01-26T12:51:24.122Z,9.00
2019-01-26T12:53:53.890Z,9.00
2019-01-26T12:56:23.714Z,9.00
2019-01-26T12:58:56.450Z,9.10
2019-01-26T13:01:26.211Z,9.10
2019-01-26T13:03:55.992Z,9.20
2019-01-26T13:06:28.786Z,9.30
2019-01-26T13:08:58.474Z,9.30
2019-01-26T13:11:29.812Z,9.20
2019-01-26T13:13:59.503Z,9.10
2019-01-26T13:16:29.256Z,9.20
2019-01-26T13:18:59.038Z,9.20
2019-01-26T13:21:28.714Z,9.10
2019-01-26T13:23:58.474Z,9.00
2019-01-26T13:26:28.186Z,8.90
2019-01-26T13:28:57.936Z,8.90
2019-01-26T13:31:27.707Z,8.90
2019-01-26T13:33:57.390Z,8.80
2019-01-26T13:36:27.314Z,8.80
2019-01-26T13:38:57.074Z,8.80
2019-01-26T13:41:26.770Z,8.70
2019-01-26T13:43:56.446Z,8.70
2019-01-26T13:46:26.221Z,8.70
2019-01-26T13:48:56.002Z,8.60
2019-01-26T13:51:25.798Z,8.60
2019-01-26T13:53:55.574Z,8.50
2019-01-26T13:56:25.330Z,8.50
2019-01-26T13:58:55.147Z,8.50
2019-01-26T14:01:24.914Z,8.50
2019-01-26T14:03:54.679Z,8.50
2019-01-26T14:06:24.446Z,8.50
2019-01-26T14:08:54.151Z,8.50
2019-01-26T14:11:23.930Z,8.50
2019-01-26T14:13:53.695Z,8.40
2019-01-26T14:16:23.359Z,8.40
2019-01-26T14:18:53.054Z,8.40
2019-01-26T14:21:22.899Z,8.40
2019-01-26T14:23:52.587Z,8.40
2019-01-26T14:26:22.418Z,8.40
2019-01-26T14:28:52.253Z,8.40
2019-01-26T14:31:22.017Z,8.40
2019-01-26T14:33:51.886Z,8.40
2019-01-26T14:36:21.609Z,8.40
2019-01-26T14:38:51.353Z,8.50
2019-01-26T14:41:21.266Z,8.50
2019-01-26T14:43:50.994Z,8.50
2019-01-26T14:46:20.885Z,8.50
2019-01-26T14:48:50.602Z,8.50
2019-01-26T14:51:20.482Z,8.50
2019-01-26T14:53:50.265Z,8.40
2019-01-26T14:56:20.036Z,8.40
2019-01-26T14:58:49.738Z,8.40
2019-01-26T15:01:19.629Z,8.30
2019-01-26T15:03:49.418Z,8.30
2019-01-26T15:06:19.224Z,8.20
2019-01-26T15:08:49.063Z,8.20
2019-01-26T15:11:18.843Z,8.20
2019-01-26T15:13:48.618Z,8.20
2019-01-26T15:16:18.458Z,8.20
2019-01-26T15:18:48.145Z,8.10
2019-01-26T15:21:17.838Z,8.10
2019-01-26T15:23:47.591Z,8.00
2019-01-26T15:26:17.283Z,8.00
2019-01-26T15:28:46.986Z,8.00
2019-01-26T15:31:16.903Z,8.00
2019-01-26T15:33:46.638Z,8.00
2019-01-26T15:36:16.402Z,7.90
2019-01-26T15:38:46.087Z,8.00
2019-01-26T15:41:15.899Z,8.00
2019-01-26T15:43:45.578Z,8.00
2019-01-26T15:46:15.298Z,8.00
2019-01-26T15:48:44.993Z,7.90
2019-01-26T15:51:14.693Z,7.90
2019-01-26T15:53:44.427Z,7.90
2019-01-26T15:56:14.186Z,7.90
2019-01-26T15:58:43.879Z,7.90
2019-01-26T16:01:13.638Z,7.80
2019-01-26T16:03:43.395Z,7.80
2019-01-26T16:06:13.496Z,7.80
2019-01-26T16:08:43.242Z,7.80
2019-01-26T16:11:13.097Z,7.80
2019-01-26T16:13:42.762Z,7.70
2019-01-26T16:16:12.525Z,7.70
2019-01-26T16:18:42.207Z,7.70
2019-01-26T16:21:11.964Z,7.60
2019-01-26T16:23:41.630Z,7.60
2019-01-26T16:26:11.348Z,7.60
2019-01-26T16:28:41.090Z,7.60
2019-01-26T16:31:10.790Z,7.60
2019-01-26T16:33:40.462Z,7.70
2019-01-26T16:36:10.326Z,7.70
2019-01-26T16:38:40.070Z,7.70
2019-01-26T16:41:09.848Z,7.70
2019-01-26T16:43:39.599Z,7.70
2019-01-26T16:46:09.384Z,7.80
2019-01-26T16:48:39.109Z,7.80
2019-01-26T16:51:08.959Z,7.80
2019-01-26T16:53:38.661Z,7.80
2019-01-26T16:56:08.614Z,7.80
2019-01-26T16:58:38.642Z,7.80
2019-01-26T17:01:08.494Z,7.80
2019-01-26T17:03:39.352Z,7.90
2019-01-26T17:06:09.403Z,7.90
2019-01-26T17:08:39.076Z,7.90
2019-01-26T17:11:09.235Z,7.90
2019-01-26T17:13:38.982Z,8.00
2019-01-26T17:16:08.819Z,8.00
2019-01-26T17:18:38.499Z,8.00
2019-01-26T17:21:08.203Z,8.00
2019-01-26T17:23:38.780Z,8.00
2019-01-26T17:26:08.548Z,8.00
2019-01-26T17:28:38.323Z,8.00
2019-01-26T17:31:07.993Z,8.00
2019-01-26T17:33:37.806Z,8.00
2019-01-26T17:36:07.506Z,8.00
2019-01-26T17:38:37.338Z,8.00
2019-01-26T17:41:07.200Z,8.10
2019-01-26T17:43:36.932Z,8.10
2019-01-26T17:46:06.765Z,8.00
2019-01-26T17:48:36.930Z,8.00
2019-01-26T17:51:06.703Z,8.00
2019-01-26T17:53:36.499Z,8.00
2019-01-26T17:56:06.267Z,8.10
2019-01-26T17:58:36.045Z,8.10
2019-01-26T18:01:07.622Z,8.00
2019-01-26T18:03:37.466Z,8.00
2019-01-26T18:06:07.201Z,7.90
2019-01-26T18:08:37.047Z,7.90
2019-01-26T18:11:06.869Z,8.00
2019-01-26T18:13:36.755Z,7.90
2019-01-26T18:16:06.495Z,7.90
2019-01-26T18:18:36.333Z,7.90
2019-01-26T18:21:06.092Z,7.90
2019-01-26T18:23:35.830Z,8.00
2019-01-26T18:26:07.261Z,8.00
2019-01-26T18:28:37.142Z,7.90
2019-01-26T18:31:06.222Z,7.90
2019-01-26T18:33:36.250Z,7.90
2019-01-26T18:36:06.216Z,8.00
2019-01-26T18:38:35.981Z,8.00
2019-01-26T18:41:05.844Z,8.00
2019-01-26T18:43:35.642Z,8.00
2019-01-26T18:46:05.758Z,8.00
2019-01-26T18:48:35.528Z,7.90
2019-01-26T18:51:05.353Z,7.80
2019-01-26T18:53:35.042Z,7.70
2019-01-26T18:56:06.277Z,7.60
2019-01-26T18:58:35.974Z,7.60
2019-01-26T19:01:05.898Z,7.50
2019-01-26T19:03:53.738Z,7.50
2019-01-26T19:06:23.430Z,7.40
2019-01-26T19:08:53.214Z,7.40
2019-01-26T19:11:23.241Z,7.40
2019-01-26T19:13:52.998Z,7.30
2019-01-26T19:16:22.762Z,7.30
2019-01-26T19:18:52.522Z,7.30
2019-01-26T19:21:22.391Z,7.30
2019-01-26T19:23:53.214Z,7.30
2019-01-26T19:26:23.027Z,7.30
2019-01-26T19:28:52.822Z,7.30
2019-01-26T19:31:22.698Z,7.30
2019-01-26T19:33:52.474Z,7.30
2019-01-26T19:36:22.250Z,7.40
2019-01-26T19:38:52.002Z,7.40
2019-01-26T19:41:21.838Z,7.50
2019-01-26T19:43:51.548Z,7.50
2019-01-26T19:46:21.309Z,7.50
2019-01-26T19:48:51.144Z,7.50
2019-01-26T19:51:20.962Z,7.50
2019-01-26T19:53:50.653Z,7.50
2019-01-26T19:56:20.589Z,7.50
2019-01-26T19:58:50.366Z,7.50
2019-01-26T20:01:20.202Z,7.50
2019-01-26T20:03:49.955Z,7.60
2019-01-26T20:06:19.775Z,7.60
2019-01-26T20:08:49.586Z,7.60
2019-01-26T20:11:19.378Z,7.60
2019-01-26T20:13:49.237Z,7.70
2019-01-26T20:16:18.986Z,7.70
2019-01-26T20:18:48.695Z,7.70
2019-01-26T20:21:18.462Z,7.70
2019-01-26T20:23:48.409Z,7.80
2019-01-26T20:26:18.162Z,7.80
2019-01-26T20:28:47.978Z,7.80
2019-01-26T20:31:17.790Z,7.90
2019-01-26T20:33:47.622Z,7.90
2019-01-26T20:36:17.408Z,7.90
2019-01-26T20:38:47.075Z,7.90
2019-01-26T20:41:16.825Z,7.90
2019-01-26T20:43:46.679Z,7.90
2019-01-26T20:46:16.521Z,7.90
2019-01-26T20:48:46.263Z,7.90
2019-01-26T20:51:16.030Z,7.90
2019-01-26T20:53:45.865Z,7.90
2019-01-26T20:56:15.575Z,7.80
2019-01-26T20:58:45.283Z,7.80
2019-01-26T21:01:15.111Z,7.80
2019-01-26T21:03:44.950Z,7.80
2019-01-26T21:06:14.742Z,7.80
2019-01-26T21:08:44.433Z,7.80
2019-01-26T21:11:14.270Z,7.80
2019-01-26T21:13:43.957Z,7.80
2019-01-26T21:16:13.802Z,7.80
2019-01-26T21:18:43.502Z,7.80
2019-01-26T21:21:13.198Z,7.80
2019-01-26T21:23:42.904Z,7.80
2019-01-26T21:26:12.718Z,7.80
2019-01-26T21:28:42.420Z,7.80
2019-01-26T21:31:12.186Z,7.80
2019-01-26T21:33:41.905Z,7.90
2019-01-26T21:36:11.651Z,7.90
2019-01-26T21:38:41.335Z,7.80
2019-01-26T21:41:11.123Z,7.80
2019-01-26T21:43:40.817Z,7.90
2019-01-26T21:46:10.619Z,7.90
2019-01-26T21:48:40.309Z,7.80
2019-01-26T21:51:10.270Z,7.80
2019-01-26T21:53:40.070Z,7.80
2019-01-26T21:56:09.913Z,7.70
2019-01-26T21:58:39.696Z,7.70
2019-01-26T22:01:09.453Z,7.70
2019-01-26T22:03:39.314Z,7.60
2019-01-26T22:06:09.095Z,7.60
2019-01-26T22:08:38.890Z,7.60
2019-01-26T22:11:08.573Z,7.60
2019-01-26T22:13:38.342Z,7.60
2019-01-26T22:16:08.170Z,7.60
2019-01-26T22:18:37.933Z,7.50
2019-01-26T22:21:07.754Z,7.50
2019-01-26T22:23:37.422Z,7.50
2019-01-26T22:26:07.199Z,7.50
2019-01-26T22:28:36.969Z,7.50
2019-01-26T22:31:06.727Z,7.50
2019-01-26T22:33:36.398Z,7.50
2019-01-26T22:36:06.166Z,7.40
2019-01-26T22:38:36.010Z,7.40
2019-01-26T22:41:05.791Z,7.40
2019-01-26T22:43:35.687Z,7.40
2019-01-26T22:46:05.822Z,7.30
2019-01-26T22:48:35.609Z,7.30
2019-01-26T22:51:05.459Z,7.30
2019-01-26T22:53:35.285Z,7.30
2019-01-26T22:56:05.727Z,7.30
2019-01-26T22:58:35.426Z,7.30
2019-01-26T23:01:14.394Z,7.30
2019-01-26T23:04:19.126Z,7.30
2019-01-26T23:07:29.819Z,7.30
2019-01-26T23:10:12.422Z,7.30
2019-01-26T23:12:50.581Z,7.30
2019-01-26T23:16:06.642Z,7.30
2019-01-26T23:18:51.674Z,7.30
2019-01-26T23:21:48.731Z,7.30
2019-01-26T23:24:51.631Z,7.30
2019-01-26T23:27:53.783Z,7.30
2019-01-26T23:30:55.385Z,7.30
2019-01-26T23:33:25.174Z,7.30
2019-01-26T23:35:54.857Z,7.30
2019-01-26T23:38:24.818Z,7.30
2019-01-26T23:40:54.633Z,7.30
2019-01-26T23:43:24.458Z,7.30
2019-01-26T23:45:54.153Z,7.30
2019-01-26T23:48:23.928Z,7.30
2019-01-26T23:50:53.769Z,7.30
2019-01-26T23:53:23.514Z,7.30
2019-01-26T23:55:53.246Z,7.40
2019-01-26T23:58:22.997Z,7.40
